Time;durP1;ratioP1;P1;durP2;ratioP2;P2;SDS_P1;SDS_P2;PMS_P1;PMS_P2;Temp;Humidity;BMP_temperature;BMP_pressure;BME280_temperature;BME280_humidity;BME280_pressure;Samples;Min_cycle;Max_cycle;Signal;HPM_P1;HPM_P2
2022/12/03 00:00:11;;;;;;;0.70;0.70;;;;;;;2.05;100.00;100603.88;5031915;28;20456;-53
2022/12/03 00:02:39;;;;;;;2.20;1.27;;;;;;;2.06;100.00;100597.81;5030295;28;20451;-53
2022/12/03 00:05:06;;;;;;;5.93;1.60;;;;;;;2.01;100.00;100599.47;5031327;28;20495;-52
2022/12/03 00:07:33;;;;;;;1.10;1.10;;;;;;;2.15;100.00;100590.03;5031597;28;20514;-53
2022/12/03 00:09:59;;;;;;;1.73;1.13;;;;;;;1.98;100.00;100604.69;5031632;28;20451;-53
2022/12/03 00:12:26;;;;;;;1.10;0.70;;;;;;;1.99;100.00;100601.22;5031247;28;20959;-52
2022/12/03 00:14:52;;;;;;;0.80;0.80;;;;;;;2.00;100.00;100595.97;5026688;28;20513;-54
2022/12/03 00:17:19;;;;;;;1.70;0.83;;;;;;;2.01;100.00;100595.13;5028604;28;20557;-53
2022/12/03 00:19:45;;;;;;;0.33;0.20;;;;;;;2.06;100.00;100590.81;5031335;28;20463;-54
2022/12/03 00:22:12;;;;;;;1.27;1.07;;;;;;;2.05;100.00;100589.03;5031163;28;20737;-52
2022/12/03 00:24:38;;;;;;;1.40;1.30;;;;;;;1.93;100.00;100591.56;5030863;28;20491;-52
2022/12/03 00:27:04;;;;;;;4.17;1.07;;;;;;;1.95;100.00;100597.69;5031405;28;20472;-52
2022/12/03 00:29:31;;;;;;;1.60;1.30;;;;;;;1.91;100.00;100595.88;5031052;28;20463;-54
2022/12/03 00:31:57;;;;;;;1.03;1.03;;;;;;;1.88;100.00;100594.97;5031104;28;20462;-52
2022/12/03 00:34:24;;;;;;;0.87;0.87;;;;;;;1.99;100.00;100596.84;5030806;28;20451;-53
2022/12/03 00:36:50;;;;;;;1.80;1.70;;;;;;;2.03;100.00;100601.25;5030706;28;20487;-53
2022/12/03 00:39:16;;;;;;;4.07;2.23;;;;;;;1.92;100.00;100594.13;5028845;28;20972;-52
2022/12/03 00:41:43;;;;;;;1.23;1.23;;;;;;;1.91;100.00;100593.25;5030635;28;20466;-54
2022/12/03 00:44:10;;;;;;;0.83;0.83;;;;;;;2.05;100.00;100585.53;5030047;28;20487;-52
2022/12/03 00:46:37;;;;;;;0.90;0.90;;;;;;;1.96;100.00;100594.19;5030559;28;20980;-53
2022/12/03 00:49:03;;;;;;;1.10;0.90;;;;;;;1.95;100.00;100591.56;5029135;28;20452;-52
2022/12/03 00:51:30;;;;;;;2.67;0.80;;;;;;;1.92;100.00;100591.50;5030660;28;20456;-52
2022/12/03 00:53:56;;;;;;;2.93;1.83;;;;;;;1.96;100.00;100586.34;5030755;28;20522;-51
2022/12/03 00:56:23;;;;;;;2.43;1.57;;;;;;;2.00;100.00;100585.50;5030454;28;20476;-54
2022/12/03 00:58:50;;;;;;;0.30;0.20;;;;;;;2.01;100.00;100599.47;5030552;28;20455;-53
2022/12/03 01:01:16;;;;;;;5.13;2.07;;;;;;;2.03;100.00;100596.00;5030491;28;20463;-53
2022/12/03 01:03:43;;;;;;;0.87;0.87;;;;;;;2.13;100.00;100581.25;5029931;28;20462;-54
2022/12/03 01:06:09;;;;;;;2.60;2.40;;;;;;;1.96;100.00;100588.09;5030624;28;20820;-52
2022/12/03 01:08:36;;;;;;;3.70;1.07;;;;;;;2.04;100.00;100591.66;5030033;28;20451;-55
2022/12/03 01:11:02;;;;;;;2.40;2.30;;;;;;;1.95;100.00;100586.31;5030343;28;20513;-52
2022/12/03 01:13:29;;;;;;;0.90;0.90;;;;;;;1.89;100.00;100586.22;5029926;28;20478;-53
2022/12/03 01:15:55;;;;;;;1.33;1.23;;;;;;;1.93;100.00;100585.44;5029994;28;20471;-54
2022/12/03 01:18:22;;;;;;;0.80;0.80;;;;;;;1.97;100.00;100592.44;5029908;28;20477;-52
2022/12/03 01:20:48;;;;;;;0.93;0.93;;;;;;;1.91;100.00;100589.75;5030188;28;20502;-53
2022/12/03 01:23:14;;;;;;;1.47;1.37;;;;;;;2.05;100.00;100589.03;5029771;28;20967;-53
2022/12/03 01:25:41;;;;;;;1.67;1.57;;;;;;;1.92;100.00;100594.13;5029918;28;20851;-54
2022/12/03 01:28:07;;;;;;;6.67;1.00;;;;;;;1.94;100.00;100595.06;5029827;28;20447;-53
2022/12/03 01:32:15;;;;;;;6.57;2.87;;;;;;;2.10;100.00;100598.72;5030316;28;20462;-54
2022/12/03 01:33:20;;;;;;;2.30;2.10;;;;;;;2.10;100.00;100601.34;5017752;28;20821;-53
2022/12/03 01:35:47;;;;;;;1.93;1.83;;;;;;;1.91;100.00;100598.50;5029330;28;20471;-52
2022/12/03 01:38:13;;;;;;;5.63;1.00;;;;;;;1.94;100.00;100597.66;5029854;28;20448;-52
2022/12/03 01:40:40;;;;;;;1.60;1.50;;;;;;;1.98;100.00;100605.56;5029796;28;20459;-52
2022/12/03 01:43:06;;;;;;;1.57;1.47;;;;;;;1.99;100.00;100594.22;5029591;28;20455;-54
2022/12/03 01:45:32;;;;;;;13.60;1.63;;;;;;;1.99;100.00;100594.22;5029270;28;20547;-53
2022/12/03 01:47:59;;;;;;;0.60;0.60;;;;;;;2.08;100.00;100596.97;5029572;28;20459;-54
2022/12/03 01:50:31;;;;;;;8.17;2.80;;;;;;;2.08;100.00;100606.56;5029587;28;20448;-52
2022/12/03 01:53:01;;;;;;;2.40;2.30;;;;;;;2.06;100.00;100597.81;5029306;28;20818;-53
2022/12/03 01:55:28;;;;;;;3.70;1.67;;;;;;;2.02;100.00;100598.63;5029467;28;20495;-54
2022/12/03 01:57:59;;;;;;;1.53;1.50;;;;;;;2.11;100.00;100593.47;5029085;28;20458;-54
2022/12/03 02:00:27;;;;;;;7.73;3.37;;;;;;;2.10;100.00;100593.47;5029514;28;20462;-54
2022/12/03 02:02:59;;;;;;;3.63;3.33;;;;;;;2.04;100.00;100600.38;5029304;28;21115;-52
2022/12/03 02:05:28;;;;;;;0.70;0.70;;;;;;;2.21;100.00;100594.47;5028944;28;20533;-55
2022/12/03 02:07:56;;;;;;;12.17;3.77;;;;;;;2.23;100.00;100592.72;5029367;28;20452;-53
2022/12/03 02:10:27;;;;;;;0.70;0.70;;;;;;;2.14;100.00;100601.38;5029141;28;20977;-53
2022/12/03 02:12:57;;;;;;;5.77;3.50;;;;;;;2.11;100.00;100596.09;5029217;28;20917;-53
2022/12/03 02:15:24;;;;;;;3.53;3.33;;;;;;;2.12;100.00;100602.22;5029159;28;20463;-53
2022/12/03 02:17:52;;;;;;;1.60;1.50;;;;;;;2.19;100.00;100604.03;5029306;28;20458;-51
2022/12/03 02:20:18;;;;;;;1.47;1.37;;;;;;;2.20;100.00;100605.81;5028951;28;20455;-53
2022/12/03 02:22:53;;;;;;;2.77;2.57;;;;;;;2.23;100.00;100617.22;5029025;28;20451;-51
2022/12/03 02:25:22;;;;;;;3.20;3.07;;;;;;;2.25;100.00;100615.47;5028906;28;20873;-52
2022/12/03 02:27:49;;;;;;;2.47;2.23;;;;;;;2.27;100.00;100618.13;5029394;28;20462;-52
2022/12/03 02:30:18;;;;;;;0.70;0.70;;;;;;;2.31;100.00;100612.03;5029879;28;20456;-55
2022/12/03 02:32:46;;;;;;;1.30;1.20;;;;;;;2.41;100.00;100602.50;5029941;28;20490;-54
2022/12/03 02:35:15;;;;;;;3.60;1.50;;;;;;;2.34;100.00;100610.34;5029488;28;20491;-54
2022/12/03 02:37:43;;;;;;;5.17;3.27;;;;;;;2.37;100.00;100606.84;5029792;28;20451;-53
2022/12/03 02:40:16;;;;;;;3.37;1.37;;;;;;;2.36;100.00;100602.47;5029259;28;20447;-52
2022/12/03 02:42:44;;;;;;;1.47;1.37;;;;;;;2.44;100.00;100599.91;5028733;28;20871;-52
2022/12/03 02:45:41;;;;;;;3.60;2.80;;;;;;;2.30;100.00;100595.41;5028835;28;20506;-53
2022/12/03 02:48:13;;;;;;;3.33;3.10;;;;;;;2.28;100.00;100596.28;5027926;28;20474;-52
2022/12/03 02:50:42;;;;;;;3.07;1.30;;;;;;;2.37;100.00;100588.50;5028841;28;20448;-53
2022/12/03 02:53:15;;;;;;;14.07;2.77;;;;;;;2.46;100.00;100598.19;5028729;28;20829;-52
2022/12/03 02:55:42;;;;;;;9.47;1.60;;;;;;;2.31;100.00;100598.91;5028661;28;20470;-53
2022/12/03 02:58:10;;;;;;;4.10;3.70;;;;;;;2.30;100.00;100590.16;5028640;28;20455;-54
2022/12/03 03:00:38;;;;;;;4.10;3.20;;;;;;;2.39;100.00;100597.25;5028871;28;20847;-52
2022/12/03 03:03:07;;;;;;;3.73;2.53;;;;;;;2.35;100.00;100598.97;5028824;28;20452;-53
2022/12/03 03:05:36;;;;;;;2.53;2.20;;;;;;;2.29;100.00;100600.66;5028229;28;20905;-54
2022/12/03 03:08:04;;;;;;;2.63;2.00;;;;;;;2.45;100.00;100602.53;5031760;28;20462;-54
2022/12/03 03:10:33;;;;;;;2.83;2.63;;;;;;;2.25;100.00;100599.75;5032405;28;20548;-54
2022/12/03 03:13:02;;;;;;;3.63;2.60;;;;;;;2.33;100.00;100613.81;5032810;28;20832;-53
2022/12/03 03:15:29;;;;;;;5.40;1.80;;;;;;;2.32;100.00;100598.94;5019340;28;20476;-52
2022/12/03 03:17:55;;;;;;;6.07;2.50;;;;;;;2.34;100.00;100594.59;5032698;28;20470;-52
2022/12/03 03:20:22;;;;;;;1.00;1.00;;;;;;;2.38;100.00;100599.00;5032286;28;20463;-54
2022/12/03 03:22:48;;;;;;;2.40;2.30;;;;;;;2.34;100.00;100601.59;5032281;28;20462;-52
2022/12/03 03:25:17;;;;;;;5.03;2.53;;;;;;;2.48;100.00;100597.34;5031969;28;20499;-55
2022/12/03 03:27:44;;;;;;;2.07;1.97;;;;;;;2.36;100.00;100592.00;5031987;28;20452;-54
2022/12/03 03:30:12;;;;;;;10.73;3.03;;;;;;;2.44;100.00;100590.28;5032231;28;20462;-53
2022/12/03 03:32:39;;;;;;;3.27;2.97;;;;;;;2.50;100.00;100595.63;5031991;28;20928;-51
2022/12/03 03:35:07;;;;;;;4.30;2.47;;;;;;;2.44;100.00;100590.28;5031928;28;20467;-53
2022/12/03 03:37:34;;;;;;;2.13;2.00;;;;;;;2.40;100.00;100596.38;5032006;28;20451;-53
2022/12/03 03:40:01;;;;;;;3.07;1.13;;;;;;;2.46;100.00;100596.44;5031660;28;20455;-54
2022/12/03 03:42:27;;;;;;;1.87;1.77;;;;;;;2.37;100.00;100594.63;5032277;28;20456;-52
2022/12/03 03:44:54;;;;;;;3.27;2.93;;;;;;;2.46;100.00;100592.94;5031863;28;20495;-53
2022/12/03 03:47:22;;;;;;;6.77;2.77;;;;;;;2.47;100.00;100587.72;5031812;28;20474;-54
2022/12/03 03:49:49;;;;;;;2.50;2.40;;;;;;;2.41;100.00;100592.91;5031601;28;20455;-52
2022/12/03 03:52:18;;;;;;;5.40;2.80;;;;;;;2.47;100.00;100584.19;5031671;28;20925;-52
2022/12/03 03:54:45;;;;;;;7.80;4.00;;;;;;;2.53;100.00;100585.13;5032118;28;20455;-53
2022/12/03 03:57:12;;;;;;;2.80;1.70;;;;;;;2.38;100.00;100593.75;5031572;28;20460;-53
2022/12/03 03:59:38;;;;;;;9.50;1.73;;;;;;;2.33;100.00;100584.97;5031988;28;20514;-53
2022/12/03 04:02:04;;;;;;;6.13;1.20;;;;;;;2.37;100.00;100583.25;5031410;28;20945;-52
2022/12/03 04:04:35;;;;;;;4.50;3.03;;;;;;;2.48;100.00;100586.84;5031451;28;20513;-56
2022/12/03 04:07:01;;;;;;;0.90;0.90;;;;;;;2.62;100.00;100581.72;5031107;28;20522;-52
2022/12/03 04:09:28;;;;;;;24.27;3.33;;;;;;;2.57;100.00;100580.78;5031656;28;20455;-54
2022/12/03 04:14:39;;;;;;;2.57;2.37;;;;;;;2.49;100.00;100569.38;5031352;28;20498;-53
2022/12/03 04:17:05;;;;;;;4.37;1.53;;;;;;;2.42;100.00;100573.66;5031169;28;20468;-52
2022/12/03 04:19:32;;;;;;;8.70;1.60;;;;;;;2.44;100.00;100574.56;5029772;28;20513;-56
2022/12/03 04:24:43;;;;;;;4.40;3.80;;;;;;;2.59;100.00;100574.69;5030714;28;20491;-54
2022/12/03 04:29:55;;;;;;;2.63;1.63;;;;;;;2.48;100.00;100562.38;5030707;28;20509;-52
2022/12/03 04:37:53;;;;;;;16.07;2.13;;;;;;;2.59;100.00;100564.19;5030737;28;20902;-52
2022/12/03 04:43:04;;;;;;;4.00;3.80;;;;;;;2.61;100.00;100561.59;5017858;28;20456;-54
2022/12/03 04:45:31;;;;;;;20.80;2.70;;;;;;;2.49;100.00;100559.75;5030527;28;20499;-57
2022/12/03 04:47:57;;;;;;;2.67;2.57;;;;;;;2.39;100.00;100560.53;5030835;28;20459;-54
2022/12/03 04:50:24;;;;;;;1.27;1.17;;;;;;;2.50;100.00;100564.13;5030454;28;20562;-54
2022/12/03 04:52:50;;;;;;;2.20;1.27;;;;;;;2.53;100.00;100553.66;5017454;28;20452;-53
2022/12/03 04:55:16;;;;;;;0.70;0.70;;;;;;;2.53;100.00;100565.91;5030661;28;20605;-54
2022/12/03 04:57:43;;;;;;;2.03;1.90;;;;;;;2.50;100.00;100564.13;5017293;28;20886;-55
2022/12/03 05:00:10;;;;;;;6.33;1.83;;;;;;;2.52;100.00;100562.41;5030443;28;20462;-55
2022/12/03 05:02:36;;;;;;;1.17;0.80;;;;;;;2.44;100.00;100565.81;5030616;28;20925;-53
2022/12/03 05:05:03;;;;;;;0.50;0.50;;;;;;;2.63;100.00;100570.38;5028886;28;20968;-53
2022/12/03 05:07:29;;;;;;;5.07;4.67;;;;;;;2.67;100.00;100562.50;5030410;28;20451;-53
2022/12/03 05:09:56;;;;;;;1.17;1.17;;;;;;;2.44;100.00;100566.69;5030485;28;20456;-54
2022/12/03 05:12:22;;;;;;;18.37;4.20;;;;;;;2.52;100.00;100564.16;5030413;28;20451;-53
2022/12/03 05:14:49;;;;;;;1.90;1.60;;;;;;;2.59;100.00;100569.44;5030098;28;20521;-52
2022/12/03 05:17:15;;;;;;;2.27;0.97;;;;;;;2.58;100.00;100572.94;5030115;28;20516;-53
2022/12/03 05:22:27;;;;;;;3.67;3.47;;;;;;;2.47;100.00;100569.38;5030238;28;20992;-54
2022/12/03 05:24:53;;;;;;;2.83;2.73;;;;;;;2.47;100.00;100576.31;5029734;28;20452;-53
2022/12/03 05:27:23;;;;;;;3.93;2.07;;;;;;;2.62;100.00;100579.97;5030064;28;20458;-54
2022/12/03 05:29:50;;;;;;;3.07;2.80;;;;;;;2.56;100.00;100574.66;5029443;28;20471;-54
2022/12/03 05:32:16;;;;;;;17.00;2.13;;;;;;;2.59;100.00;100569.44;5030052;28;20910;-54
2022/12/03 05:34:43;;;;;;;0.83;0.70;;;;;;;2.51;100.00;100571.13;5029607;28;20463;-53
2022/12/03 05:37:09;;;;;;;2.30;2.10;;;;;;;2.65;100.00;100571.25;5029605;28;20482;-53
2022/12/03 05:39:36;;;;;;;2.93;2.70;;;;;;;2.69;100.00;100567.78;5029691;28;20456;-53
2022/12/03 05:44:47;;;;;;;0.63;0.63;;;;;;;2.75;100.00;100573.09;5017076;28;20914;-52
2022/12/03 05:47:14;;;;;;;0.90;0.90;;;;;;;2.74;100.00;100562.56;5029629;28;20458;-54
2022/12/03 05:49:40;;;;;;;3.43;3.33;;;;;;;2.81;100.00;100569.63;5029819;28;20459;-53
2022/12/03 05:52:06;;;;;;;7.00;1.47;;;;;;;2.90;100.00;100565.31;5030097;28;20463;-54
2022/12/03 05:54:33;;;;;;;3.33;2.03;;;;;;;2.93;100.00;100574.97;5029952;28;20494;-53
2022/12/03 05:56:59;;;;;;;3.53;3.40;;;;;;;2.86;100.00;100570.50;5029479;28;20478;-53
2022/12/03 05:59:26;;;;;;;4.70;3.17;;;;;;;2.74;100.00;100575.66;5029610;28;20509;-53
2022/12/03 06:01:52;;;;;;;3.83;2.83;;;;;;;2.72;100.00;100566.91;5029517;28;20509;-54
2022/12/03 06:04:19;;;;;;;0.73;0.73;;;;;;;2.83;100.00;100573.13;5029516;28;20490;-53
2022/12/03 06:06:45;;;;;;;4.20;3.27;;;;;;;2.70;100.00;100564.28;5029109;28;21064;-54
2022/12/03 06:09:11;;;;;;;5.93;3.20;;;;;;;2.74;100.00;100571.34;5029252;28;20455;-53
2022/12/03 06:11:39;;;;;;;1.90;1.80;;;;;;;2.84;100.00;100560.00;5029315;28;20451;-54
2022/12/03 06:14:05;;;;;;;2.63;2.53;;;;;;;2.83;100.00;100574.00;5027393;28;20506;-55
2022/12/03 06:16:32;;;;;;;2.20;1.87;;;;;;;2.77;100.00;100563.47;5021404;28;20479;-53
2022/12/03 06:18:58;;;;;;;5.20;1.07;;;;;;;2.98;100.00;100562.72;5029416;28;20547;-53
2022/12/03 06:21:25;;;;;;;1.90;1.80;;;;;;;2.97;100.00;100555.72;5028967;28;20843;-52
2022/12/03 06:23:51;;;;;;;3.40;1.40;;;;;;;2.86;100.00;100546.88;5029131;28;20905;-55
2022/12/03 06:26:17;;;;;;;1.50;1.40;;;;;;;2.63;100.00;100552.00;5028820;28;20541;-53
2022/12/03 06:28:46;;;;;;;12.90;2.00;;;;;;;2.70;100.00;100545.91;5028765;28;20546;-55
2022/12/03 06:31:12;;;;;;;1.70;1.60;;;;;;;2.63;100.00;100547.63;5029055;28;20649;-52
2022/12/03 06:33:39;;;;;;;2.30;2.17;;;;;;;2.73;100.00;100545.03;5029462;28;20856;-53
2022/12/03 06:36:06;;;;;;;2.63;2.53;;;;;;;2.57;100.00;100542.31;5028546;28;20475;-53
2022/12/03 06:38:32;;;;;;;2.70;1.93;;;;;;;2.40;100.00;100538.69;5028854;28;20455;-53
2022/12/03 06:40:58;;;;;;;6.33;1.80;;;;;;;2.37;100.00;100544.78;5028760;28;20910;-53
2022/12/03 06:43:25;;;;;;;2.10;1.40;;;;;;;2.53;100.00;100545.78;5032458;28;20447;-53
2022/12/03 06:45:51;;;;;;;3.60;1.60;;;;;;;2.24;100.00;100539.41;5033173;28;20822;-53
2022/12/03 06:48:18;;;;;;;2.37;2.27;;;;;;;2.39;100.00;100544.78;5033255;28;20456;-52
2022/12/03 06:50:44;;;;;;;0.67;0.67;;;;;;;2.45;100.00;100530.84;5031376;28;20884;-52
2022/12/03 06:53:10;;;;;;;1.13;0.60;;;;;;;2.45;100.00;100534.34;5032830;28;20960;-54
2022/12/03 06:55:37;;;;;;;0.83;0.83;;;;;;;2.40;100.00;100529.94;5032605;28;20471;-54
2022/12/03 06:58:03;;;;;;;2.77;1.33;;;;;;;2.35;100.00;100525.53;5032660;28;20948;-53
2022/12/03 07:00:30;;;;;;;1.83;1.73;;;;;;;2.45;100.00;100528.22;5032726;28;20459;-53
2022/12/03 07:02:56;;;;;;;1.47;1.37;;;;;;;2.27;100.00;100537.69;5032728;28;20474;-52
2022/12/03 07:05:22;;;;;;;1.10;0.73;;;;;;;2.27;100.00;100534.19;5032204;28;20558;-55
2022/12/03 07:07:50;;;;;;;1.10;1.10;;;;;;;2.38;100.00;100543.91;5032515;28;20451;-53
2022/12/03 07:10:18;;;;;;;2.17;1.63;;;;;;;2.25;100.00;100541.19;5032348;28;20455;-52
2022/12/03 07:12:44;;;;;;;0.93;0.93;;;;;;;2.21;100.00;100548.16;5032346;28;20459;-52
2022/12/03 07:15:10;;;;;;;3.13;1.17;;;;;;;2.25;100.00;100542.06;5032454;28;20510;-53
2022/12/03 07:17:37;;;;;;;3.90;2.00;;;;;;;2.27;100.00;100536.81;5032261;28;21006;-52
2022/12/03 07:20:04;;;;;;;1.13;0.60;;;;;;;2.29;100.00;100548.19;5032197;28;20497;-54
2022/12/03 07:22:30;;;;;;;1.77;1.67;;;;;;;2.24;100.00;100550.78;5032133;28;20474;-53
2022/12/03 07:24:57;;;;;;;0.83;0.83;;;;;;;2.28;100.00;100554.31;5032171;28;20455;-53
2022/12/03 07:27:23;;;;;;;5.03;3.63;;;;;;;2.49;100.00;100549.25;5032027;28;20506;-55
2022/12/03 07:29:50;;;;;;;2.83;2.73;;;;;;;2.56;100.00;100555.41;5032111;28;20462;-54
2022/12/03 07:32:16;;;;;;;2.43;0.60;;;;;;;2.34;100.00;100555.25;5032098;28;20458;-54
2022/12/03 07:34:43;;;;;;;2.73;2.17;;;;;;;2.42;100.00;100560.56;5032109;28;21008;-53
2022/12/03 07:37:09;;;;;;;2.50;2.00;;;;;;;2.41;100.00;100552.69;5032515;28;20934;-54
2022/12/03 07:39:36;;;;;;;1.53;1.43;;;;;;;2.41;100.00;100550.06;5031940;28;20983;-52
2022/12/03 07:42:02;;;;;;;2.60;2.23;;;;;;;2.45;100.00;100544.84;5032334;28;20505;-54
2022/12/03 07:44:30;;;;;;;3.03;2.83;;;;;;;2.40;100.00;100540.44;5031864;28;20929;-54
2022/12/03 07:46:57;;;;;;;1.37;1.03;;;;;;;2.37;100.00;100543.91;5031833;28;20503;-54
2022/12/03 07:49:25;;;;;;;5.77;1.77;;;;;;;2.40;100.00;100551.78;5032016;28;20455;-54
2022/12/03 07:51:55;;;;;;;1.03;1.03;;;;;;;2.47;100.00;100551.00;5031760;28;20839;-55
2022/12/03 07:54:23;;;;;;;2.03;1.30;;;;;;;2.47;100.00;100552.72;5031571;28;20459;-55
2022/12/03 07:56:49;;;;;;;1.30;1.30;;;;;;;2.42;100.00;100551.81;5031822;28;20472;-54
2022/12/03 07:59:16;;;;;;;12.97;2.03;;;;;;;2.34;100.00;100552.63;5031819;28;20455;-56
2022/12/03 08:01:43;;;;;;;9.40;2.77;;;;;;;2.42;100.00;100550.06;5031839;28;20477;-55
2022/12/03 08:04:13;;;;;;;1.33;1.33;;;;;;;2.30;100.00;100545.59;5031807;28;20460;-54
2022/12/03 08:06:40;;;;;;;1.03;1.03;;;;;;;2.30;100.00;100550.81;5031157;28;20996;-55
2022/12/03 08:09:06;;;;;;;1.20;1.10;;;;;;;2.59;100.00;100558.94;5032020;28;20460;-53
2022/12/03 08:11:39;;;;;;;0.40;0.40;;;;;;;2.52;100.00;100556.28;5031735;28;20890;-54
2022/12/03 08:14:19;;;;;;;0.80;0.80;;;;;;;2.62;100.00;100555.50;5031706;28;20506;-53
2022/12/03 08:16:46;;;;;;;10.53;2.03;;;;;;;2.46;100.00;100558.81;5031879;28;20901;-54
2022/12/03 08:19:15;;;;;;;3.80;3.50;;;;;;;2.51;100.00;100557.16;5031528;28;20447;-53
2022/12/03 08:21:42;;;;;;;5.37;5.00;;;;;;;2.66;100.00;100559.88;5031605;28;20459;-56
2022/12/03 08:24:19;;;;;;;2.90;2.70;;;;;;;2.79;100.00;100560.84;5031753;28;20968;-54
2022/12/03 08:26:47;;;;;;;2.20;1.53;;;;;;;2.73;100.00;100561.66;5031664;28;20865;-54
2022/12/03 08:29:16;;;;;;;3.07;2.10;;;;;;;2.75;100.00;100559.97;5031343;28;20509;-55
2022/12/03 08:31:53;;;;;;;1.60;1.53;;;;;;;2.64;100.00;100561.63;5031261;28;20456;-55
2022/12/03 08:34:22;;;;;;;3.13;2.93;;;;;;;2.60;100.00;100565.97;5031544;28;20458;-56
2022/12/03 08:37:00;;;;;;;3.13;2.43;;;;;;;2.68;100.00;100564.28;5031441;28;21042;-57
2022/12/03 08:39:43;;;;;;;2.50;2.30;;;;;;;2.77;100.00;100558.22;5030824;28;20450;-54
2022/12/03 08:42:42;;;;;;;2.87;2.67;;;;;;;2.65;100.00;100563.38;5030644;28;20448;-54
2022/12/03 08:45:27;;;;;;;1.67;1.57;;;;;;;2.60;100.00;100568.59;5021869;28;20482;-54
2022/12/03 08:47:55;;;;;;;1.87;1.77;;;;;;;2.57;100.00;100570.28;5027960;28;20604;-54
2022/12/03 08:50:27;;;;;;;3.40;3.20;;;;;;;2.53;100.00;100564.16;5030990;28;20456;-55
2022/12/03 08:53:06;;;;;;;7.40;1.73;;;;;;;2.88;100.00;100571.44;5030831;28;20478;-56
2022/12/03 08:55:36;;;;;;;0.77;0.77;;;;;;;2.59;100.00;100572.06;5030643;28;20467;-57
2022/12/03 08:58:22;;;;;;;4.87;2.10;;;;;;;2.56;100.00;100572.03;5030486;28;20470;-56
2022/12/03 09:00:55;;;;;;;4.40;4.07;;;;;;;2.57;100.00;100570.28;5029829;28;20458;-56
2022/12/03 09:03:23;;;;;;;2.03;1.93;;;;;;;2.57;100.00;100576.41;5030894;28;20464;-57
2022/12/03 09:05:49;;;;;;;4.50;2.70;;;;;;;2.71;100.00;100573.03;5029617;28;20529;-57
2022/12/03 09:08:16;;;;;;;2.93;1.03;;;;;;;2.74;100.00;100571.34;5030229;28;20818;-57
2022/12/03 09:10:42;;;;;;;3.23;1.97;;;;;;;2.66;100.00;100563.38;5030435;28;20534;-57
2022/12/03 09:13:09;;;;;;;1.87;1.77;;;;;;;2.61;100.00;100559.84;5030602;28;20451;-56
2022/12/03 09:15:35;;;;;;;3.50;3.03;;;;;;;2.64;100.00;100559.00;5029905;28;20472;-56
2022/12/03 09:18:02;;;;;;;2.80;2.70;;;;;;;2.77;100.00;100565.22;5025913;28;20452;-56
2022/12/03 09:20:28;;;;;;;3.40;3.17;;;;;;;2.77;100.00;100557.34;5028731;28;20452;-55
2022/12/03 09:22:55;;;;;;;3.83;2.57;;;;;;;2.90;100.00;100557.44;5028407;28;20452;-56
2022/12/03 09:25:21;;;;;;;15.87;2.83;;;;;;;3.04;100.00;100556.66;5029833;28;20855;-57
2022/12/03 09:27:48;;;;;;;9.87;3.97;;;;;;;3.14;100.00;100556.69;5029432;28;20488;-57
2022/12/03 09:30:15;;;;;;;3.67;3.43;;;;;;;3.11;100.00;100553.19;5029992;28;20503;-57
2022/12/03 09:32:41;;;;;;;2.80;2.60;;;;;;;3.39;100.00;100547.19;5028933;28;20986;-57
2022/12/03 09:35:09;;;;;;;4.93;2.90;;;;;;;3.45;100.00;100551.63;5029159;28;20479;-57
2022/12/03 09:37:35;;;;;;;3.90;3.20;;;;;;;3.46;100.00;100537.63;5028722;28;20456;-57
2022/12/03 09:40:02;;;;;;;2.23;1.00;;;;;;;3.56;100.00;100539.38;5029372;28;20510;-57
2022/12/03 09:42:29;;;;;;;3.73;1.30;;;;;;;3.70;100.00;100535.09;5029113;28;20452;-57
2022/12/03 09:44:55;;;;;;;1.40;1.30;;;;;;;3.43;100.00;100538.47;5029381;28;20463;-57
2022/12/03 09:47:22;;;;;;;4.80;2.27;;;;;;;3.66;100.00;100530.66;5029046;28;21052;-57
2022/12/03 09:49:49;;;;;;;3.20;2.03;;;;;;;3.41;100.00;100534.94;5029432;28;20850;-57
2022/12/03 09:52:25;;;;;;;3.63;2.00;;;;;;;3.31;100.00;100535.78;5029041;28;20463;-57
2022/12/03 09:54:52;;;;;;;3.13;1.80;;;;;;;3.17;100.00;100540.97;5029258;28;20971;-57
2022/12/03 09:57:19;;;;;;;2.23;2.10;;;;;;;3.36;100.00;100527.94;5028686;28;20452;-57
2022/12/03 09:59:46;;;;;;;8.70;4.90;;;;;;;3.36;100.00;100527.94;5029258;28;21032;-56
2022/12/03 10:02:27;;;;;;;2.80;2.60;;;;;;;3.26;100.00;100538.38;5028897;28;20967;-57
2022/12/03 10:04:54;;;;;;;9.03;2.87;;;;;;;3.27;100.00;100539.25;5028609;28;20459;-56
2022/12/03 10:07:23;;;;;;;3.23;1.43;;;;;;;3.40;100.00;100521.81;5026047;28;20499;-56
2022/12/03 10:09:50;;;;;;;3.17;2.90;;;;;;;3.37;100.00;100522.69;5028542;28;20514;-56
2022/12/03 10:12:22;;;;;;;6.13;2.80;;;;;;;3.55;100.00;100525.38;5023671;28;20474;-57
2022/12/03 10:14:49;;;;;;;6.43;2.83;;;;;;;3.36;100.00;100520.03;5028552;28;20459;-56
2022/12/03 10:17:16;;;;;;;2.30;2.20;;;;;;;3.54;100.00;100512.22;5026644;28;20494;-56
2022/12/03 10:19:43;;;;;;;2.63;2.53;;;;;;;3.32;100.00;100519.16;5028848;28;20456;-56
2022/12/03 10:22:10;;;;;;;0.83;0.57;;;;;;;3.26;100.00;100521.75;5028691;28;21003;-58
2022/12/03 10:24:37;;;;;;;3.70;1.40;;;;;;;3.48;100.00;100512.22;5029160;28;20467;-56
2022/12/03 10:27:21;;;;;;;4.50;3.77;;;;;;;3.72;100.00;100508.78;5028477;28;20491;-56
2022/12/03 10:29:56;;;;;;;2.50;2.30;;;;;;;3.56;100.00;100514.00;5028787;28;20455;-57
2022/12/03 10:32:37;;;;;;;2.43;1.47;;;;;;;3.55;100.00;100499.09;5028398;28;20459;-56
2022/12/03 10:35:10;;;;;;;5.07;4.40;;;;;;;3.38;100.00;100511.28;5027405;28;20483;-56
2022/12/03 10:37:56;;;;;;;3.27;2.67;;;;;;;3.38;100.00;100500.78;5028414;28;20460;-57
2022/12/03 10:40:37;;;;;;;6.10;3.77;;;;;;;3.57;100.00;100491.22;5028708;28;20443;-57
2022/12/03 10:43:18;;;;;;;9.33;5.53;;;;;;;3.39;100.00;100501.66;5029189;28;20792;-57
2022/12/03 10:45:46;;;;;;;3.63;3.43;;;;;;;3.39;100.00;100496.41;5028329;28;20510;-57
2022/12/03 10:48:18;;;;;;;7.10;3.10;;;;;;;3.30;100.00;100496.38;5028493;28;20487;-57
2022/12/03 10:50:54;;;;;;;2.30;2.03;;;;;;;3.49;100.00;100495.56;5060451;28;21019;-57
2022/12/03 10:53:25;;;;;;;4.70;2.67;;;;;;;3.51;100.00;100494.69;5028189;28;20456;-57
2022/12/03 10:55:57;;;;;;;5.70;2.77;;;;;;;3.47;100.00;100494.69;5028808;28;20479;-56
2022/12/03 10:58:27;;;;;;;1.07;0.97;;;;;;;3.35;100.00;100481.50;5028538;28;20957;-57
2022/12/03 11:00:55;;;;;;;1.77;1.70;;;;;;;3.64;100.00;100482.47;5028558;28;20455;-56
2022/12/03 11:03:28;;;;;;;2.37;1.13;;;;;;;3.23;100.00;100480.59;5028905;28;20467;-57
2022/12/03 11:05:55;;;;;;;6.83;2.10;;;;;;;3.43;100.00;100469.28;5015871;28;20472;-56
2022/12/03 11:08:25;;;;;;;3.60;3.30;;;;;;;3.32;100.00;100479.75;5028285;28;20545;-57
2022/12/03 11:11:06;;;;;;;1.50;1.40;;;;;;;3.44;100.00;100478.94;5028635;28;20828;-57
2022/12/03 11:13:33;;;;;;;9.60;2.60;;;;;;;3.42;100.00;100480.66;5028869;28;20452;-57
2022/12/03 11:16:01;;;;;;;2.63;2.43;;;;;;;3.49;100.00;100472.81;5028381;28;20482;-57
2022/12/03 11:18:36;;;;;;;5.87;5.37;;;;;;;3.42;100.00;100471.00;5025817;28;21048;-57
2022/12/03 11:21:11;;;;;;;6.53;2.17;;;;;;;3.46;100.00;100469.28;5028462;28;20456;-56
2022/12/03 11:23:44;;;;;;;2.47;2.37;;;;;;;3.60;100.00;100470.22;5028633;28;20454;-56
2022/12/03 11:26:27;;;;;;;10.50;4.23;;;;;;;3.60;100.00;100467.59;5028313;28;20502;-57
2022/12/03 11:28:56;;;;;;;2.10;2.00;;;;;;;3.38;100.00;100457.88;5030950;28;20922;-57
2022/12/03 11:31:34;;;;;;;3.37;3.23;;;;;;;3.54;100.00;100457.91;5032080;28;20456;-56
2022/12/03 11:34:19;;;;;;;7.80;1.80;;;;;;;3.43;100.00;100459.66;5032350;28;20447;-56
2022/12/03 11:37:10;;;;;;;11.53;3.90;;;;;;;3.62;100.00;100449.19;5019697;28;20788;-57
2022/12/03 11:39:43;;;;;;;3.13;2.70;;;;;;;3.60;100.00;100454.44;5031822;28;20451;-56
2022/12/03 11:42:24;;;;;;;4.43;1.90;;;;;;;3.57;100.00;100449.19;5031692;28;20463;-57
2022/12/03 11:45:03;;;;;;;2.47;1.70;;;;;;;3.63;100.00;100443.94;5019853;28;20552;-56
2022/12/03 11:47:41;;;;;;;8.13;2.57;;;;;;;3.59;100.00;100438.69;5031294;28;20496;-57
2022/12/03 11:50:16;;;;;;;2.07;1.80;;;;;;;3.72;100.00;100433.44;5031692;28;20447;-57
2022/12/03 11:52:44;;;;;;;5.37;2.40;;;;;;;3.69;100.00;100430.78;5031452;28;20455;-56